Aérodrome :
LOGIN :

S'inscrire | Disclaimer

   EN    FR    IT 

 










Légende :    VFR   VFR Marginal   IFR   IFR Intensif   IFR Très Intensif
Visi : 
Plafond : 
>= 8 km
>= 3000ft
5 à 8 km
1000 à 3000 ft
1500m à 5 km
500 à 1000 ft
800 à 1500m
200 à 500 ft
< 800m
< 200 ft
Symboles :   Orages  Brouillard  Fortes neiges  Fortes précipitations  Vent > 20 kt
SIGMETs :   Divers  Orages  Givrage  Turbulence  Onde Orograph.  Cendres Volcan.







- Altitude de l'aérodrome : 1234 ft
- Code IATA : LUX


ELLX - Luxembourg Findel

DERNIER METAR :
  • 230750Z 26009KT 220V280 9999 FEW020 19/14 Q1018 NOSIG

METARs EXPIRÉS :
  • 230720Z 26007KT 200V310 9999 FEW028 19/14 Q1018 NOSIG
  • 230650Z 25006KT 220V300 9999 FEW027 18/13 Q1018 NOSIG
  • 230620Z 26007KT 9999 BKN028 17/13 Q1017 NOSIG
  • 230550Z 28006KT 250V310 9999 SCT028 16/13 Q1017 NOSIG

TAF TAF ELLX
Valide du 23 à 06h jusqu'au 24 à 12h UTC


230500Z 2306/2412 29009KT CAVOK
TEMPO 2309/2318 27012G22KT
TEMPO 2406/2412 25015G28KT
ATIS : +352 4798 27300
Météo : +352 4798 27010 / 27050
Pas de NOTAMs connus pour ce terrain.



MET'MAP, la Météo Aéronautique d'un coup d'oeil ! - Copyright ORBIFLY Décembre 2007 - Disclaimer

ORBIFLY MET'MAP TEAM :

Programmation & Développement : Alexandra Zaïnal
Conception & Développement : Baudouin d'Aumeries
Co-Programmation & Développement : Marc-Olivier Méhu
Soutien technique & logistique : Manuel Goepfert

Contact : metmap@orbifly.com




SOURCES & CREDITS :

   NOAA